Time;durP1;ratioP1;P1;durP2;ratioP2;P2;SDS_P1;SDS_P2;PMS_P1;PMS_P2;Temp;Humidity;BMP_temperature;BMP_pressure;BME280_temperature;BME280_humidity;BME280_pressure;Samples;Min_cycle;Max_cycle;Signal;HPM_P1;HPM_P2
2023/10/13 00:00:58;;;;;;;;;;;;;;;-144.99;100.00;52417.53;5027261;28;19960;-70
2023/10/13 00:03:31;;;;;;;;;;;;;;;-144.99;100.00;52423.63;5027896;28;20377;-69
2023/10/13 00:06:00;;;;;;;;;;;;;;;-144.99;100.00;52419.56;5034933;28;19993;-69
2023/10/13 00:08:28;;;;;;;;;;;;;;;-144.99;100.00;52423.63;5031628;28;19943;-69
2023/10/13 00:10:59;;;;;;;;;;;;;;;-144.99;100.00;52450.13;5023086;28;20422;-69
2023/10/13 00:13:27;;;;;;;;;;;;;;;-144.99;100.00;52452.16;5029237;28;19946;-69
2023/10/13 00:15:58;;;;;;;;;;;;;;;-144.99;100.00;52407.31;5035029;28;20425;-69
2023/10/13 00:18:27;;;;;;;;;;;;;;;-144.99;100.00;52429.75;5034636;28;19967;-69
2023/10/13 00:20:56;;;;;;;;;;;;;;;-144.99;100.00;52419.56;5024746;28;20014;-69
2023/10/13 00:23:22;;;;;;;;;;;;;;;-144.99;100.00;52399.19;5036607;28;19940;-69
2023/10/13 00:25:59;;;;;;;;;;;;;;;-144.99;100.00;52427.72;5028284;28;19965;-69
2023/10/13 00:28:26;;;;;;;;;;;;;;;-144.99;100.00;52397.13;5037308;28;20010;-67
2023/10/13 00:30:59;;;;;;;;;;;;;;;-144.99;100.00;52415.47;5024826;28;20054;-69
2023/10/13 00:33:27;;;;;;;;;;;;;;;-144.99;100.00;52427.72;5033620;28;20449;-69
2023/10/13 00:35:58;;;;;;;;;;;;;;;-144.99;100.00;52450.13;5039679;28;20021;-69
2023/10/13 00:38:27;;;;;;;;;;;;;;;-144.99;100.00;52391.03;5029157;28;19945;-67
2023/10/13 00:40:53;;;;;;;;;;;;;;;-144.99;100.00;52419.56;5031769;28;19964;-62
2023/10/13 00:43:32;;;;;;;;;;;;;;;-144.99;100.00;52411.41;5028948;28;19929;-62
2023/10/13 00:46:07;;;;;;;;;;;;;;;-144.99;100.00;52439.94;5032190;28;19943;-62
2023/10/13 00:48:42;;;;;;;;;;;;;;;-144.99;100.00;52427.72;5038598;28;19935;-63
2023/10/13 00:51:13;;;;;;;;;;;;;;;-144.99;100.00;52439.94;5037166;28;20334;-64
2023/10/13 00:53:41;;;;;;;;;;;;;;;-144.99;100.00;52435.88;5024063;28;20037;-63
2023/10/13 00:56:07;;;;;;;;;;;;;;;-144.99;100.00;52441.97;5036338;28;19939;-63
2023/10/13 00:58:34;;;;;;;;;;;;;;;-144.99;100.00;52415.47;5032625;28;20463;-65
2023/10/13 01:01:17;;;;;;;;;;;;;;;-144.99;100.00;52444.03;5036220;28;19924;-63
2023/10/13 01:03:45;;;;;;;;;;;;;;;-144.99;100.00;52427.72;5027846;28;19933;-66
2023/10/13 01:06:12;;;;;;;;;;;;;;;-144.99;100.00;52435.88;5026784;28;20012;-64
2023/10/13 01:08:38;;;;;;;;;;;;;;;-144.99;100.00;52370.63;5035267;28;20571;-63
2023/10/13 01:11:07;;;;;;;;;;;;;;;-144.99;100.00;52444.03;5033655;28;20062;-64
2023/10/13 01:13:36;;;;;;;;;;;;;;;-144.99;100.00;52435.88;5035437;28;19960;-64
2023/10/13 01:16:07;;;;;;;;;;;;;;;-144.99;100.00;52431.78;5025940;28;20050;-64
2023/10/13 01:18:32;;;;;;;;;;;;;;;-144.99;100.00;52417.53;5036373;28;20369;-64
2023/10/13 01:21:00;;;;;;;;;;;;;;;-144.99;100.00;52435.88;5034825;28;19977;-67
2023/10/13 01:23:28;;;;;;;;;;;;;;;-144.99;100.00;52395.09;5037492;28;20106;-67
2023/10/13 01:25:56;;;;;;;;;;;;;;;-144.99;100.00;52427.72;5023921;28;19980;-66
2023/10/13 01:28:21;;;;;;;;;;;;;;;-144.99;100.00;52419.56;5028027;28;19926;-65
2023/10/13 01:30:50;;;;;;;;;;;;;;;-144.99;100.00;52435.88;5034183;28;19925;-66
2023/10/13 01:33:15;;;;;;;;;;;;;;;-144.99;100.00;52415.47;5032770;28;19943;-66
2023/10/13 01:35:47;;;;;;;;;;;;;;;-144.99;100.00;52407.31;5031521;28;20028;-65
2023/10/13 01:38:13;;;;;;;;;;;;;;;-144.99;100.00;52450.13;5024479;28;19950;-66
2023/10/13 01:40:42;;;;;;;;;;;;;;;-144.99;100.00;52407.31;5030405;28;19973;-65
2023/10/13 01:43:10;;;;;;;;;;;;;;;-144.99;100.00;52437.91;5037087;28;19941;-66
2023/10/13 01:45:39;;;;;;;;;;;;;;;-144.99;100.00;52439.94;5032787;28;19925;-66
2023/10/13 01:48:04;;;;;;;;;;;;;;;-144.99;100.00;52411.41;5030831;28;20016;-65
2023/10/13 01:50:31;;;;;;;;;;;;;;;-144.99;100.00;52423.63;5023516;28;20008;-65
2023/10/13 01:53:11;;;;;;;;;;;;;;;-144.99;100.00;52435.88;5035780;28;20441;-66
2023/10/13 01:55:42;;;;;;;;;;;;;;;-144.99;100.00;52444.03;5031796;28;19936;-65
2023/10/13 01:58:14;;;;;;;;;;;;;;;-144.99;100.00;52417.53;5033471;28;19962;-63
2023/10/13 02:00:41;;;;;;;;;;;;;;;-144.99;100.00;52407.31;5026200;28;19948;-63
2023/10/13 02:03:14;;;;;;;;;;;;;;;-144.99;100.00;52399.19;5029949;28;19948;-63
2023/10/13 02:05:43;;;;;;;;;;;;;;;-144.99;100.00;52423.63;5029778;28;20140;-65
2023/10/13 02:08:10;;;;;;;;;;;;;;;-144.99;100.00;52423.63;5026846;28;19941;-64
2023/10/13 02:10:43;;;;;;;;;;;;;;;-144.99;100.00;52374.72;5034559;28;20440;-64
2023/10/13 02:13:15;;;;;;;;;;;;;;;-144.99;100.00;52397.13;5035507;28;19965;-64
2023/10/13 02:15:42;;;;;;;;;;;;;;;-144.99;100.00;52448.09;5037447;28;19936;-61
2023/10/13 02:18:09;;;;;;;;;;;;;;;-144.99;100.00;52417.53;5029352;28;20078;-61
2023/10/13 02:20:42;;;;;;;;;;;;;;;-144.99;100.00;52431.78;5034489;28;19996;-65
2023/10/13 02:23:10;;;;;;;;;;;;;;;-144.99;100.00;52407.31;5029209;28;19947;-66
2023/10/13 02:25:42;;;;;;;;;;;;;;;-144.99;100.00;52444.03;5035441;28;19931;-66
2023/10/13 02:28:13;;;;;;;;;;;;;;;-144.99;100.00;52419.56;5020185;28;19933;-68
2023/10/13 02:30:44;;;;;;;;;;;;;;;-144.99;100.00;52415.47;5022252;28;19933;-66
2023/10/13 02:33:13;;;;;;;;;;;;;;;-144.99;100.00;52431.78;5030465;28;20046;-66
2023/10/13 02:35:43;;;;;;;;;;;;;;;-144.99;100.00;52395.09;5030680;28;19936;-65
2023/10/13 02:38:11;;;;;;;;;;;;;;;-144.99;100.00;52378.78;5022731;28;19962;-66
2023/10/13 02:40:38;;;;;;;;;;;;;;;-144.99;100.00;52437.91;5023968;28;20321;-65
2023/10/13 02:43:04;;;;;;;;;;;;;;;-144.99;100.00;52403.25;5031064;28;20341;-65
2023/10/13 02:45:31;;;;;;;;;;;;;;;-144.99;100.00;52370.63;5029376;28;20023;-66
2023/10/13 02:48:10;;;;;;;;;;;;;;;-144.99;100.00;52409.38;5031984;28;19968;-67
2023/10/13 02:50:38;;;;;;;;;;;;;;;-144.99;100.00;52382.88;5026845;28;20019;-67
2023/10/13 02:53:12;;;;;;;;;;;;;;;-144.99;100.00;52431.78;5039034;28;19940;-67
2023/10/13 02:55:38;;;;;;;;;;;;;;;-144.99;100.00;52403.25;5032499;28;19961;-67
2023/10/13 02:58:05;;;;;;;;;;;;;;;-144.99;100.00;52419.56;5022612;28;19960;-64
2023/10/13 03:00:32;;;;;;;;;;;;;;;-144.99;100.00;52399.19;5029843;28;19925;-65
2023/10/13 03:02:58;;;;;;;;;;;;;;;-144.99;100.00;52427.72;5036133;28;19948;-67
2023/10/13 03:05:29;;;;;;;;;;;;;;;-144.99;100.00;52395.09;5029096;28;20464;-67
2023/10/13 03:07:55;;;;;;;;;;;;;;;-144.99;100.00;52419.56;5031147;28;19929;-68
2023/10/13 03:10:24;;;;;;;;;;;;;;;-144.99;100.00;52419.56;5026926;28;19995;-68
2023/10/13 03:12:51;;;;;;;;;;;;;;;-144.99;100.00;52395.09;5034965;28;19936;-68
2023/10/13 03:15:17;;;;;;;;;;;;;;;-144.99;100.00;52407.31;5040313;28;20366;-67
2023/10/13 03:17:43;;;;;;;;;;;;;;;-144.99;100.00;52415.47;5035482;28;19994;-67
2023/10/13 03:20:13;;;;;;;;;;;;;;;-144.99;100.00;52431.78;5022774;28;19924;-68
2023/10/13 03:22:39;;;;;;;;;;;;;;;-144.99;100.00;52407.31;5039630;28;19964;-68
2023/10/13 03:25:06;;;;;;;;;;;;;;;-144.99;100.00;52407.31;5034326;28;20078;-68
2023/10/13 03:27:40;;;;;;;;;;;;;;;-144.99;100.00;52435.88;5029859;28;19929;-68
2023/10/13 03:30:14;;;;;;;;;;;;;;;-144.99;100.00;52415.47;5022979;28;20003;-68
2023/10/13 03:32:43;;;;;;;;;;;;;;;-144.99;100.00;52419.56;5025626;28;19969;-68
2023/10/13 03:35:23;;;;;;;;;;;;;;;-144.99;100.00;52386.94;5024656;28;19925;-69
2023/10/13 03:37:50;;;;;;;;;;;;;;;-144.99;100.00;52386.94;5035280;28;19925;-63
2023/10/13 03:43:04;;;;;;;;;;;;;;;-144.99;100.00;52431.78;5023859;28;20008;-64
2023/10/13 03:45:36;;;;;;;;;;;;;;;-144.99;100.00;52380.84;5029038;28;19925;-62
2023/10/13 03:48:08;;;;;;;;;;;;;;;-144.99;100.00;52415.47;5032614;28;19935;-62
2023/10/13 03:50:36;;;;;;;;;;;;;;;-144.99;100.00;52427.72;5030362;28;19933;-62
2023/10/13 03:53:05;;;;;;;;;;;;;;;-144.99;100.00;52388.97;5035806;28;19929;-62
2023/10/13 03:55:34;;;;;;;;;;;;;;;-144.99;100.00;52374.72;5033397;28;19933;-62
2023/10/13 03:58:03;;;;;;;;;;;;;;;-144.99;100.00;52423.63;5037910;22;20404;-65
2023/10/13 04:00:31;;;;;;;;;;;;;;;-144.99;100.00;52386.94;5041606;28;20021;-63
2023/10/13 04:03:08;;;;;;;;;;;;;;;-144.99;100.00;52419.56;5033443;28;20035;-67
2023/10/13 04:05:44;;;;;;;;;;;;;;;-144.99;100.00;52403.25;5037369;28;20011;-67
2023/10/13 04:16:38;;;;;;;;;;;;;;;-144.99;100.00;52370.63;5041512;28;19933;-66
2023/10/13 04:19:19;;;;;;;;;;;;;;;-144.99;100.00;52382.88;5038986;28;19929;-66
2023/10/13 04:21:57;;;;;;;;;;;;;;;-144.99;100.00;52421.59;5044908;28;20412;-67
2023/10/13 04:27:29;;;;;;;;;;;;;;;-144.99;100.00;52370.63;5022863;28;20620;-68
2023/10/13 04:30:10;;;;;;;;;;;;;;;-144.99;100.00;52374.72;5034154;28;19925;-68
2023/10/13 04:32:41;;;;;;;;;;;;;;;-144.99;100.00;52391.03;5043275;28;20386;-68
2023/10/13 04:35:17;;;;;;;;;;;;;;;-144.99;100.00;52366.56;5041553;28;20047;-69
2023/10/13 04:37:54;;;;;;;;;;;;;;;-144.99;100.00;52386.94;5044346;28;20015;-68
2023/10/13 04:40:24;;;;;;;;;;;;;;;-144.99;100.00;52366.56;5043092;28;19939;-70
2023/10/13 04:42:53;;;;;;;;;;;;;;;-144.99;100.00;52374.72;5044475;28;20032;-69
2023/10/13 04:45:38;;;;;;;;;;;;;;;-144.99;100.00;52403.25;5050417;28;19932;-69
2023/10/13 04:48:27;;;;;;;;;;;;;;;-144.99;100.00;52382.88;5038738;28;20413;-68
2023/10/13 04:51:23;;;;;;;;;;;;;;;-144.99;100.00;52397.13;5040163;28;19983;-69
2023/10/13 04:54:10;;;;;;;;;;;;;;;-144.99;100.00;52411.41;5040776;28;19933;-69
2023/10/13 05:00:42;;;;;;;;;;;;;;;-144.99;100.00;52346.19;5101314;27;19920;-69
2023/10/13 05:05:44;;;;;;;;;;;;;;;-144.99;100.00;52374.72;5094453;28;19935;-68
2023/10/13 05:47:01;;;;;;;;;;;;;;;-144.99;100.00;52370.63;5078539;28;20376;-69
2023/10/13 05:49:49;;;;;;;;;;;;;;;-144.99;100.00;52366.56;5080424;28;20402;-69
2023/10/13 06:30:40;;;;;;;;;;;;;;;-144.99;100.00;52376.75;5073981;28;19974;-71
2023/10/13 06:33:07;;;;;;;;;;;;;;;-144.99;100.00;52358.41;5066912;28;19928;-68
2023/10/13 06:35:34;;;;;;;;;;;;;;;-144.99;100.00;52388.97;5079701;28;20445;-67
2023/10/13 06:38:03;;;;;;;;;;;;;;;-144.99;100.00;52378.78;5086410;28;19993;-68
2023/10/13 06:40:34;;;;;;;;;;;;;;;-144.99;100.00;52395.09;5070659;28;20027;-69
2023/10/13 06:43:13;;;;;;;;;;;;;;;-144.99;100.00;52415.47;5084697;28;19959;-70
2023/10/13 06:45:39;;;;;;;;;;;;;;;-144.99;100.00;52364.53;5078469;28;20300;-67
2023/10/13 06:48:06;;;;;;;;;;;;;;;-144.99;100.00;52378.78;5072425;28;19971;-68
2023/10/13 06:50:39;;;;;;;;;;;;;;;-144.99;100.00;52372.69;5064212;28;20037;-67
2023/10/13 06:53:06;;;;;;;;;;;;;;;-144.99;100.00;52360.44;5071703;28;19928;-68
2023/10/13 06:55:35;;;;;;;;;;;;;;;-144.99;100.00;52366.56;5085329;28;19959;-70
2023/10/13 06:58:02;;;;;;;;;;;;;;;-144.99;100.00;52397.13;5086689;28;20225;-70
2023/10/13 07:00:29;;;;;;;;;;;;;;;-144.99;100.00;52403.25;5078142;28;20341;-67
2023/10/13 07:03:05;;;;;;;;;;;;;;;-144.99;100.00;52391.03;5081512;28;19928;-69
2023/10/13 07:05:34;;;;;;;;;;;;;;;-144.99;100.00;52395.09;5081110;28;19959;-70
2023/10/13 07:08:04;;;;;;;;;;;;;;;-144.99;100.00;52399.19;5073423;28;20001;-68
2023/10/13 07:10:39;;;;;;;;;;;;;;;-144.99;100.00;52378.78;5062106;28;19929;-68
2023/10/13 07:13:10;;;;;;;;;;;;;;;-144.99;100.00;52362.50;5079367;28;20417;-67
2023/10/13 07:15:44;;;;;;;;;;;;;;;-144.99;100.00;52360.44;5067216;28;19959;-67
2023/10/13 07:18:12;;;;;;;;;;;;;;;-144.99;100.00;52374.72;5063154;28;20016;-70
2023/10/13 07:20:43;;;;;;;;;;;;;;;-144.99;100.00;52391.03;5064740;28;19928;-70
2023/10/13 07:23:11;;;;;;;;;;;;;;;-144.99;100.00;52391.03;5065752;28;20019;-69
2023/10/13 07:25:40;;;;;;;;;;;;;;;-144.99;100.00;52372.69;5078692;28;19932;-69
2023/10/13 07:28:08;;;;;;;;;;;;;;;-144.99;100.00;52391.03;5070178;28;19936;-68
2023/10/13 07:30:42;;;;;;;;;;;;;;;-144.99;100.00;52356.38;5070726;28;19971;-69
2023/10/13 07:33:13;;;;;;;;;;;;;;;-144.99;100.00;52427.72;5061921;28;20290;-70
2023/10/13 07:35:39;;;;;;;;;;;;;;;-144.99;100.00;52395.09;5072918;28;19924;-68
2023/10/13 07:38:08;;;;;;;;;;;;;;;-144.99;100.00;52350.25;5075984;28;19987;-70
2023/10/13 07:40:40;;;;;;;;;;;;;;;-144.99;100.00;52393.06;5065238;28;19933;-68
2023/10/13 07:43:11;;;;;;;;;;;;;;;-144.99;100.00;52415.47;5086738;28;19975;-67
2023/10/13 07:45:38;;;;;;;;;;;;;;;-144.99;100.00;52409.38;5081615;28;20035;-67
2023/10/13 07:48:11;;;;;;;;;;;;;;;-144.99;100.00;52395.09;5086614;28;19935;-66
2023/10/13 07:50:38;;;;;;;;;;;;;;;-144.99;100.00;52358.41;5065995;28;19924;-68
2023/10/13 07:53:18;;;;;;;;;;;;;;;-144.99;100.00;52362.50;5076838;28;19935;-67
2023/10/13 07:55:45;;;;;;;;;;;;;;;-144.99;100.00;52370.63;5086842;28;19943;-68
2023/10/13 07:58:13;;;;;;;;;;;;;;;-144.99;100.00;52395.09;5080741;28;19979;-66
2023/10/13 08:00:47;;;;;;;;;;;;;;;-144.99;100.00;52386.94;5074832;28;19978;-66
2023/10/13 08:05:58;;;;;;;;;;;;;;;-144.99;100.00;52411.41;5051710;28;20331;-68
2023/10/13 08:08:26;;;;;;;;;;;;;;;-144.99;100.00;52382.88;5075989;28;20508;-67
2023/10/13 08:10:55;;;;;;;;;;;;;;;-144.99;100.00;52395.09;5067478;28;19934;-69
2023/10/13 08:13:23;;;;;;;;;;;;;;;-144.99;100.00;52403.25;5071798;28;19924;-66
2023/10/13 08:15:52;;;;;;;;;;;;;;;-144.99;100.00;52386.94;5075059;28;19929;-69
2023/10/13 08:18:29;;;;;;;;;;;;;;;-144.99;100.00;52346.19;5073187;28;19967;-69
2023/10/13 08:21:02;;;;;;;;;;;;;;;-144.99;100.00;52399.19;5074461;28;19928;-67
2023/10/13 08:23:57;;;;;;;;;;;;;;;-144.99;100.00;52407.31;5066858;28;19931;-66
2023/10/13 08:26:56;;;;;;;;;;;;;;;-144.99;100.00;52431.78;5063825;28;19936;-67
2023/10/13 08:32:23;;;;;;;;;;;;;;;-144.99;100.00;52378.78;5059896;28;20402;-67
2023/10/13 08:35:09;;;;;;;;;;;;;;;-144.99;100.00;52380.84;5064387;28;19971;-69
2023/10/13 08:37:45;;;;;;;;;;;;;;;-144.99;100.00;52399.19;5065763;28;19929;-66
2023/10/13 08:40:42;;;;;;;;;;;;;;;-144.99;100.00;52403.25;5071015;28;19928;-70
2023/10/13 08:43:11;;;;;;;;;;;;;;;-144.99;100.00;52407.31;5067023;28;19934;-66
2023/10/13 08:45:58;;;;;;;;;;;;;;;-144.99;100.00;52407.31;5063275;28;19928;-68
2023/10/13 08:48:31;;;;;;;;;;;;;;;-144.99;100.00;52417.53;5079558;28;20117;-70
2023/10/13 08:51:04;;;;;;;;;;;;;;;-144.99;100.00;52407.31;5085344;28;19924;-68
2023/10/13 08:53:33;;;;;;;;;;;;;;;-144.99;100.00;52378.78;5078262;28;19981;-68
2023/10/13 08:56:05;;;;;;;;;;;;;;;-144.99;100.00;52399.19;5060866;28;19951;-67
2023/10/13 09:01:34;;;;;;;;;;;;;;;-144.99;100.00;52407.31;5078145;28;19935;-69
2023/10/13 09:04:20;;;;;;;;;;;;;;;-144.99;100.00;52362.50;5061097;28;19924;-68
2023/10/13 09:06:53;;;;;;;;;;;;;;;-144.99;100.00;52386.94;5070583;28;19924;-67
2023/10/13 09:12:09;;;;;;;;;;;;;;;-144.99;100.00;52376.75;5078620;28;19928;-67
2023/10/13 09:14:37;;;;;;;;;;;;;;;-144.99;100.00;52374.72;5067226;28;20271;-68
2023/10/13 09:17:10;;;;;;;;;;;;;;;-144.99;100.00;52358.41;5068226;28;19954;-68
2023/10/13 09:19:48;;;;;;;;;;;;;;;-144.99;100.00;52366.56;5075134;28;19932;-67
2023/10/13 09:22:27;;;;;;;;;;;;;;;-144.99;100.00;52386.94;5077307;28;19945;-69
2023/10/13 09:24:58;;;;;;;;;;;;;;;-144.99;100.00;52395.09;5066305;28;19928;-69
2023/10/13 09:27:26;;;;;;;;;;;;;;;-144.99;100.00;52403.25;5064662;28;20406;-67
2023/10/13 09:30:07;;;;;;;;;;;;;;;-144.99;100.00;52378.78;5071501;28;19924;-70
2023/10/13 09:32:45;;;;;;;;;;;;;;;-144.99;100.00;52391.03;5063688;28;19928;-68
2023/10/13 09:35:13;;;;;;;;;;;;;;;-144.99;100.00;52415.47;5078044;28;19940;-68
2023/10/13 09:37:41;;;;;;;;;;;;;;;-144.99;100.00;52391.03;5067035;28;19928;-67
2023/10/13 09:40:24;;;;;;;;;;;;;;;-144.99;100.00;52382.88;5061565;28;20023;-67
2023/10/13 09:42:51;;;;;;;;;;;;;;;-144.99;100.00;52374.72;5073129;28;19998;-67
2023/10/13 09:45:17;;;;;;;;;;;;;;;-144.99;100.00;52386.94;5082412;28;20018;-67
2023/10/13 09:47:52;;;;;;;;;;;;;;;-144.99;100.00;52388.97;5086978;28;19924;-69
2023/10/13 09:50:24;;;;;;;;;;;;;;;-144.99;100.00;52372.69;5075647;28;19929;-65
2023/10/13 09:52:51;;;;;;;;;;;;;;;-144.99;100.00;52374.72;5070193;28;19924;-66
2023/10/13 09:55:21;;;;;;;;;;;;;;;-144.99;100.00;52399.19;5080650;28;20042;-68
2023/10/13 10:03:29;;;;;;;;;;;;;;;-144.99;100.00;52419.56;5028719;28;19940;-66
2023/10/13 10:06:03;;;;;;;;;;;;;;;-144.99;100.00;52384.91;5014664;28;19925;-68
2023/10/13 10:08:33;;;;;;;;;;;;;;;-144.99;100.00;52384.91;5025532;28;20358;-68
2023/10/13 10:11:20;;;;;;;;;;;;;;;-144.99;100.00;52413.44;5026003;28;20099;-68
2023/10/13 10:13:54;;;;;;;;;;;;;;;-144.99;100.00;52376.75;5028566;28;19940;-68
2023/10/13 10:16:28;;;;;;;;;;;;;;;-144.99;100.00;52386.94;5022403;28;19933;-68
2023/10/13 10:19:02;;;;;;;;;;;;;;;-144.99;100.00;52403.25;5014378;28;19956;-67
2023/10/13 10:21:33;;;;;;;;;;;;;;;-144.99;100.00;52350.25;5029001;28;19933;-69
2023/10/13 10:24:05;;;;;;;;;;;;;;;-144.99;100.00;52403.25;5022141;28;19965;-66
2023/10/13 10:26:31;;;;;;;;;;;;;;;-144.99;100.00;52378.78;5028881;28;20245;-67
2023/10/13 10:29:00;;;;;;;;;;;;;;;-144.99;100.00;52395.09;5020489;28;20036;-67
2023/10/13 10:31:35;;;;;;;;;;;;;;;-144.99;100.00;52382.88;5026178;28;20026;-68
2023/10/13 10:34:13;;;;;;;;;;;;;;;-144.99;100.00;52427.72;5027630;28;19929;-68
2023/10/13 10:36:42;;;;;;;;;;;;;;;-144.99;100.00;52386.94;5004303;28;19925;-67
2023/10/13 10:39:11;;;;;;;;;;;;;;;-144.99;100.00;52427.72;5030325;28;19935;-67
2023/10/13 10:41:44;;;;;;;;;;;;;;;-144.99;100.00;52386.94;5029592;28;20337;-68
2023/10/13 10:44:15;;;;;;;;;;;;;;;-144.99;100.00;52403.25;5027475;28;19929;-68
2023/10/13 10:46:51;;;;;;;;;;;;;;;-144.99;100.00;52391.03;5028506;28;20230;-68
2023/10/13 10:49:27;;;;;;;;;;;;;;;-144.99;100.00;52391.03;5028271;28;19931;-68
2023/10/13 10:51:57;;;;;;;;;;;;;;;-144.99;100.00;52407.31;5027708;28;19933;-69
2023/10/13 10:54:30;;;;;;;;;;;;;;;-144.99;100.00;52380.84;5024365;28;20306;-69
2023/10/13 10:56:59;;;;;;;;;;;;;;;-144.99;100.00;52342.09;5029438;28;19929;-70
2023/10/13 10:59:29;;;;;;;;;;;;;;;-144.99;100.00;52395.09;5028505;28;19933;-69
2023/10/13 11:01:58;;;;;;;;;;;;;;;-144.99;100.00;52403.25;5035959;28;19929;-68
2023/10/13 11:04:33;;;;;;;;;;;;;;;-144.99;100.00;52386.94;5031381;28;19961;-69
2023/10/13 11:06:59;;;;;;;;;;;;;;;-144.99;100.00;52366.56;5028176;28;20016;-69
2023/10/13 11:09:36;;;;;;;;;;;;;;;-144.99;100.00;52358.41;5028059;28;20019;-68
2023/10/13 11:12:14;;;;;;;;;;;;;;;-144.99;100.00;52378.78;5018467;28;20020;-68
2023/10/13 11:14:41;;;;;;;;;;;;;;;-144.99;100.00;52395.09;5025002;28;19933;-68
2023/10/13 11:17:18;;;;;;;;;;;;;;;-144.99;100.00;52382.88;5021865;28;19939;-68
2023/10/13 11:19:46;;;;;;;;;;;;;;;-144.99;100.00;52327.84;5027366;28;20327;-68
2023/10/13 11:22:29;;;;;;;;;;;;;;;-144.99;100.00;52370.63;5021690;28;20417;-68
2023/10/13 11:24:55;;;;;;;;;;;;;;;-144.99;100.00;52366.56;5022728;28;19929;-69
2023/10/13 11:27:43;;;;;;;;;;;;;;;-144.99;100.00;52419.56;5028044;28;19929;-68
2023/10/13 11:30:12;;;;;;;;;;;;;;;-144.99;100.00;52360.44;5026586;28;20148;-69
2023/10/13 11:32:41;;;;;;;;;;;;;;;-144.99;100.00;52380.84;5019024;28;19925;-69
2023/10/13 11:35:20;;;;;;;;;;;;;;;-144.99;100.00;52399.19;5027333;28;19929;-68
2023/10/13 11:37:55;;;;;;;;;;;;;;;-144.99;100.00;52358.41;5019374;28;19937;-70
2023/10/13 11:40:43;;;;;;;;;;;;;;;-144.99;100.00;52362.50;5032022;28;20448;-68
2023/10/13 11:43:13;;;;;;;;;;;;;;;-144.99;100.00;52362.50;5031778;28;19968;-70
2023/10/13 11:45:52;;;;;;;;;;;;;;;-144.99;100.00;52382.88;5028465;28;19933;-68
2023/10/13 11:48:29;;;;;;;;;;;;;;;-144.99;100.00;52382.88;5029707;28;20030;-68
2023/10/13 11:50:56;;;;;;;;;;;;;;;-144.99;100.00;52350.25;5020402;28;20394;-69
2023/10/13 11:53:22;;;;;;;;;;;;;;;-144.99;100.00;52354.34;5027673;28;19940;-69
2023/10/13 11:55:49;;;;;;;;;;;;;;;-144.99;100.00;52323.75;5028994;28;19972;-68
2023/10/13 11:58:17;;;;;;;;;;;;;;;-144.99;100.00;52283.00;5030646;28;20432;-69
2023/10/13 12:01:01;;;;;;;;;;;;;;;-144.99;100.00;52236.13;5031157;28;19925;-70
2023/10/13 12:06:22;;;;;;;;;;;;;;;-144.99;100.00;52311.53;5026870;28;19979;-70
2023/10/13 12:08:52;;;;;;;;;;;;;;;-144.99;100.00;52309.50;5025153;28;20386;-70
2023/10/13 12:14:16;;;;;;;;;;;;;;;-144.99;100.00;52342.09;5019733;28;20485;-69
2023/10/13 12:16:48;;;;;;;;;;;;;;;-144.99;100.00;52344.16;5010706;28;19925;-69
2023/10/13 12:19:16;;;;;;;;;;;;;;;-144.99;100.00;52382.88;5022965;28;19948;-69
2023/10/13 12:21:44;;;;;;;;;;;;;;;-144.99;100.00;52382.88;5018737;28;19936;-70
2023/10/13 12:24:22;;;;;;;;;;;;;;;-144.99;100.00;52350.25;5025915;28;20321;-69
2023/10/13 12:26:48;;;;;;;;;;;;;;;-144.99;100.00;52399.19;5019151;28;20321;-68
2023/10/13 12:29:22;;;;;;;;;;;;;;;-144.99;100.00;52386.94;5026947;28;19975;-69
2023/10/13 12:32:01;;;;;;;;;;;;;;;-144.99;100.00;52370.63;5024272;28;19929;-69
2023/10/13 12:34:46;;;;;;;;;;;;;;;-144.99;100.00;52358.41;5025173;28;20024;-69
2023/10/13 12:37:37;;;;;;;;;;;;;;;-144.99;100.00;52382.88;5023356;28;19951;-69
2023/10/13 12:51:19;;;;;;;;;;;;;;;-144.99;100.00;52358.41;5013747;28;19952;-71
2023/10/13 12:53:47;;;;;;;;;;;;;;;-144.99;100.00;52350.25;5022178;28;20390;-69
2023/10/13 12:56:14;;;;;;;;;;;;;;;-144.99;100.00;52376.75;5022068;28;19932;-70
2023/10/13 12:58:41;;;;;;;;;;;;;;;-144.99;100.00;52338.03;5017578;28;20383;-68
2023/10/13 13:01:08;;;;;;;;;;;;;;;-144.99;100.00;52301.34;5017764;28;19933;-68
2023/10/13 13:03:35;;;;;;;;;;;;;;;-144.99;100.00;52280.97;5019412;28;20382;-68
2023/10/13 13:06:07;;;;;;;;;;;;;;;-144.99;99.62;52331.91;5020920;28;20410;-69
2023/10/13 13:08:35;;;;;;;;;;;;;;;-144.99;100.00;52374.72;5014513;28;20274;-70
2023/10/13 13:11:03;;;;;;;;;;;;;;;-144.99;100.00;52333.94;5025352;28;20049;-69
2023/10/13 13:13:31;;;;;;;;;;;;;;;-144.99;99.81;52386.94;5025084;28;20043;-69
2023/10/13 13:15:58;;;;;;;;;;;;;;;-144.99;100.00;52378.78;5022522;28;19925;-71
2023/10/13 13:18:24;;;;;;;;;;;;;;;-144.99;100.00;52342.09;5010109;28;19957;-69
2023/10/13 13:20:54;;;;;;;;;;;;;;;-144.99;100.00;52366.56;5024152;28;19929;-69
2023/10/13 13:23:21;;;;;;;;;;;;;;;-144.99;100.00;52362.50;5012850;28;20945;-68
2023/10/13 13:25:48;;;;;;;;;;;;;;;-144.99;100.00;52382.88;5027800;28;20401;-69
2023/10/13 13:28:16;;;;;;;;;;;;;;;-144.99;100.00;52364.53;5030703;28;20435;-70
2023/10/13 13:30:42;;;;;;;;;;;;;;;-144.99;100.00;52364.53;4674804;28;9999854;-69
2023/10/13 13:33:11;;;;;;;;;;;;;;;-144.99;100.00;52358.41;5023643;28;19929;-69
2023/10/13 13:35:38;;;;;;;;;;;;;;;-144.99;100.00;52366.56;5029877;28;20015;-70
2023/10/13 13:38:09;;;;;;;;;;;;;;;-144.99;100.00;52370.63;5030692;28;19986;-70
2023/10/13 13:40:37;;;;;;;;;;;;;;;-144.99;100.00;52378.78;5032158;28;19929;-70
2023/10/13 13:43:04;;;;;;;;;;;;;;;-144.99;100.00;52378.78;5033018;28;20347;-70
2023/10/13 13:45:34;;;;;;;;;;;;;;;-144.99;100.00;52370.63;5031441;28;19955;-70
2023/10/13 13:48:07;;;;;;;;;;;;;;;-144.99;100.00;52411.41;5032735;28;20007;-74
2023/10/13 13:50:39;;;;;;;;;;;;;;;-144.99;100.00;52382.88;5030752;28;19931;-69
2023/10/13 13:53:09;;;;;;;;;;;;;;;-144.99;100.00;52378.78;4680364;28;10000262;-71
2023/10/13 13:55:35;;;;;;;;;;;;;;;-144.99;100.00;52391.03;5030002;28;19929;-70
2023/10/13 13:58:07;;;;;;;;;;;;;;;-144.99;100.00;52407.31;5029578;28;19925;-70
2023/10/13 14:00:38;;;;;;;;;;;;;;;-144.99;100.00;52407.31;5026621;28;19929;-70
2023/10/13 14:03:05;;;;;;;;;;;;;;;-144.99;100.00;52360.44;5022475;28;20381;-70
2023/10/13 14:05:31;;;;;;;;;;;;;;;-144.99;100.00;52378.78;5009233;28;19932;-70
2023/10/13 14:07:58;;;;;;;;;;;;;;;-144.99;100.00;52393.06;5027570;28;20445;-70
2023/10/13 14:10:32;;;;;;;;;;;;;;;-144.99;100.00;52354.34;5023049;28;20026;-70
2023/10/13 14:13:06;;;;;;;;;;;;;;;-144.99;100.00;52386.94;5027163;28;19936;-70
2023/10/13 14:15:43;;;;;;;;;;;;;;;-144.99;100.00;52386.94;5027560;28;19929;-69
2023/10/13 14:18:14;;;;;;;;;;;;;;;-144.99;100.00;52380.84;5023341;28;20256;-70
2023/10/13 14:20:42;;;;;;;;;;;;;;;-144.99;100.00;52378.78;5022946;28;20401;-69
2023/10/13 14:23:11;;;;;;;;;;;;;;;-144.99;100.00;52382.88;5016825;28;19925;-70
2023/10/13 14:25:38;;;;;;;;;;;;;;;-144.99;100.00;52391.03;5029074;28;19941;-70
2023/10/13 14:28:05;;;;;;;;;;;;;;;-144.99;100.00;52435.88;5026111;28;20048;-69
2023/10/13 14:30:31;;;;;;;;;;;;;;;-144.99;100.00;52374.72;5027419;28;20255;-71
2023/10/13 14:32:59;;;;;;;;;;;;;;;-144.99;100.00;52366.56;5028015;28;20016;-71
2023/10/13 14:35:26;;;;;;;;;;;;;;;-144.99;100.00;52382.88;5026553;28;20299;-69
2023/10/13 14:37:53;;;;;;;;;;;;;;;-144.99;100.00;52386.94;5023858;28;20394;-69
2023/10/13 14:40:21;;;;;;;;;;;;;;;-144.99;100.00;52393.06;5031520;28;19975;-69
2023/10/13 14:42:48;;;;;;;;;;;;;;;-144.99;100.00;52395.09;5028565;28;20071;-69
2023/10/13 14:45:16;;;;;;;;;;;;;;;-144.99;100.00;52409.38;5028667;28;20104;-69
2023/10/13 14:47:43;;;;;;;;;;;;;;;-144.99;100.00;52395.09;5019956;28;20390;-69
2023/10/13 14:50:17;;;;;;;;;;;;;;;-144.99;99.78;52382.88;5028217;28;19925;-70